Airfield :
LOGIN :

Register | Disclaimer

   EN    FR    IT 

 










Legend :    VFR   Marginal VFR   IFR   Intensive IFR   Very Intensive IFR
Visi :
Ceiling :
>= 8 km
>= 3000ft
5 to 8 km
1000 to 3000 ft
1500m to 5 km
500 to 1000 ft
800 to 1500m
200 to 500 ft
< 800m
< 200 ft
Symbols :   Thunderstorms  Fog  Heavy snow  Heavy precipitations  Wind > 20 kt
SIGMETs :     Misc.  Thunderstorms  Icing  Turbulence  Mountain Waves  Volcanic Ashes






- Airport Elevation : 177 ft
- IATA code : AYT


LTAI - Antalya

CURRENT METAR :
  • 151420Z 30004KT 9999 FEW030 17/10 Q1019 NOSIG RMK RWY18C 27004KT RWY36R 28005KT RWY18L 27004KT 260V040

EXPIRED METARs :
  • 151350Z 31006KT 9999 FEW030 18/10 Q1018 NOSIG RMK RWY18C 29005KT RWY36R 30005KT RWY18L 30006KT
  • 151320Z 31006KT 9999 FEW030 19/10 Q1018 NOSIG RMK RWY18C 29005KT RWY36R 30007KT RWY18L 30007KT
  • 151250Z 30006KT 9999 FEW030 19/09 Q1018 NOSIG RMK RWY18C 30006KT 260V320 RWY36R 31005KT 270V350 RWY18L 32006KT 290V350
  • 151220Z 31006KT 9999 FEW030 19/09 Q1017 NOSIG RMK RWY18C 31006KT 270V360 RWY36R 31006KT 270V350 RWY18L 30006KT 260V330
  • 151150Z 29005KT 260V320 9999 FEW030 19/09 Q1017 NOSIG RMK RWY18C 28005KT 210V310 RWY36R 31005KT 270V340 RWY18L VRB04KT

TAF TAF LTAI
Valid from the 15 at 12:00 until the 16 at 12:00 UTC


151040Z 1512/1612 VRB02KT 9999 FEW030
BECMG 1514/1518 CAVOK
BECMG 1608/1612 34012KT



MET'MAP, your aeronautical weather chart ! - Copyright ORBIFLY December 2007 - Disclaimer

ORBIFLY MET'MAP TEAM :

Programming & Development : Alexandra Zaïnal
Concept & original design : Baudouin d'Aumeries
Assistance for programming : Marc-Olivier Méhu
Technical & hardware support : Manuel Goepfert

Contact : metmap@orbifly.com




SOURCES & CREDITS :

   NOAA